createdAt,value
2023-04-13T00:00:53.749Z,1.00
2023-04-13T00:03:20.847Z,0.87
2023-04-13T00:05:48.437Z,1.10
2023-04-13T00:08:17.017Z,1.00
2023-04-13T00:10:45.823Z,0.90
2023-04-13T00:13:12.820Z,0.97
2023-04-13T00:15:43.425Z,0.93
2023-04-13T00:18:11.296Z,1.00
2023-04-13T00:20:40.886Z,0.90
2023-04-13T00:23:10.091Z,1.27
2023-04-13T00:25:37.040Z,1.20
2023-04-13T00:28:06.133Z,0.93
2023-04-13T00:30:33.287Z,1.00
2023-04-13T00:33:03.601Z,1.00
2023-04-13T00:35:39.904Z,1.10
2023-04-13T00:38:07.295Z,1.10
2023-04-13T00:40:37.504Z,1.00
2023-04-13T00:43:05.551Z,1.00
2023-04-13T00:45:39.434Z,1.20
2023-04-13T00:48:10.729Z,1.00
2023-04-13T00:50:42.223Z,1.30
2023-04-13T00:53:13.153Z,1.13
2023-04-13T00:55:42.726Z,1.17
2023-04-13T00:58:13.731Z,1.10
2023-04-13T01:00:43.008Z,1.00
2023-04-13T01:03:14.438Z,1.33
2023-04-13T01:06:19.018Z,1.07
2023-04-13T01:08:58.773Z,0.90
2023-04-13T01:11:52.307Z,1.40
2023-04-13T01:14:37.690Z,1.73
2023-04-13T01:17:21.573Z,1.93
2023-04-13T01:20:15.704Z,1.50
2023-04-13T01:23:09.896Z,1.20
2023-04-13T01:25:51.712Z,1.40
2023-04-13T01:28:22.878Z,0.90
2023-04-13T01:30:54.491Z,1.20
2023-04-13T01:33:25.239Z,1.00
2023-04-13T01:35:52.799Z,1.30
2023-04-13T01:38:26.781Z,1.20
2023-04-13T01:40:53.676Z,1.27
2023-04-13T01:43:21.448Z,1.07
2023-04-13T01:46:15.645Z,0.90
2023-04-13T01:49:01.565Z,1.00
2023-04-13T01:51:35.420Z,1.00
2023-04-13T01:54:25.744Z,1.30
2023-04-13T01:56:56.970Z,1.13
2023-04-13T01:59:23.916Z,1.20
2023-04-13T02:01:50.855Z,1.50
2023-04-13T02:04:18.331Z,1.10
2023-04-13T02:06:48.220Z,0.93
2023-04-13T02:09:16.980Z,1.20
2023-04-13T02:11:47.373Z,1.20
2023-04-13T02:14:14.561Z,1.10
2023-04-13T02:16:47.532Z,1.20
2023-04-13T02:19:14.750Z,1.00
2023-04-13T02:21:42.025Z,1.20
2023-04-13T02:24:09.400Z,1.03
2023-04-13T02:26:37.533Z,1.17
2023-04-13T02:29:05.770Z,1.10
2023-04-13T02:31:33.678Z,1.20
2023-04-13T02:34:00.878Z,0.87
2023-04-13T02:36:28.079Z,0.93
2023-04-13T02:39:00.599Z,1.10
2023-04-13T02:41:27.794Z,1.10
2023-04-13T02:44:01.504Z,1.10
2023-04-13T02:46:32.154Z,1.10
2023-04-13T02:48:59.806Z,1.00
2023-04-13T02:51:27.919Z,1.10
2023-04-13T02:53:57.317Z,1.37
2023-04-13T02:56:28.071Z,1.20
2023-04-13T02:58:55.093Z,1.13
2023-04-13T03:01:25.044Z,1.03
2023-04-13T03:03:52.156Z,1.10
2023-04-13T03:06:19.131Z,1.10
2023-04-13T03:08:46.212Z,1.40
2023-04-13T03:11:13.295Z,1.20
2023-04-13T03:13:41.507Z,0.93
2023-04-13T03:16:11.199Z,1.03
2023-04-13T03:18:39.264Z,1.20
2023-04-13T03:21:07.031Z,1.40
2023-04-13T03:23:34.932Z,1.50
2023-04-13T03:26:02.920Z,1.10
2023-04-13T03:28:31.862Z,1.50
2023-04-13T03:30:59.830Z,1.40
2023-04-13T03:33:26.833Z,1.30
2023-04-13T03:35:53.756Z,0.90
2023-04-13T03:38:20.709Z,1.20
2023-04-13T03:40:49.737Z,1.60
2023-04-13T03:43:17.737Z,1.17
2023-04-13T03:45:44.745Z,1.70
2023-04-13T03:48:11.739Z,1.30
2023-04-13T03:50:39.781Z,1.23
2023-04-13T03:53:06.672Z,1.30
2023-04-13T03:55:34.759Z,1.37
2023-04-13T03:58:01.905Z,1.20
2023-04-13T04:00:30.329Z,1.10
2023-04-13T04:02:57.358Z,1.03
2023-04-13T04:05:24.524Z,1.10
2023-04-13T04:07:51.605Z,1.33
2023-04-13T04:10:19.589Z,1.10
2023-04-13T04:12:46.549Z,1.23
2023-04-13T04:15:14.480Z,1.13
2023-04-13T04:17:42.450Z,1.30
2023-04-13T04:20:10.471Z,1.20
2023-04-13T04:22:37.578Z,1.10
2023-04-13T04:25:04.978Z,1.03
2023-04-13T04:27:37.734Z,1.40
2023-04-13T04:30:06.755Z,1.00
2023-04-13T04:32:35.759Z,1.30
2023-04-13T04:35:04.936Z,1.30
2023-04-13T04:37:37.168Z,1.20
2023-04-13T04:40:09.386Z,1.20
2023-04-13T04:42:39.721Z,1.20
2023-04-13T04:45:10.603Z,1.40
2023-04-13T04:47:41.943Z,1.30
2023-04-13T04:50:14.217Z,1.40
2023-04-13T04:52:41.621Z,1.17
2023-04-13T04:55:09.498Z,1.30
2023-04-13T04:57:36.833Z,1.17
2023-04-13T05:00:10.684Z,1.27
2023-04-13T05:02:37.961Z,1.00
2023-04-13T05:05:06.867Z,1.10
2023-04-13T05:07:33.801Z,1.80
2023-04-13T05:10:00.954Z,1.23
2023-04-13T05:12:27.910Z,1.30
2023-04-13T05:14:54.850Z,0.90
2023-04-13T05:17:25.629Z,1.40
2023-04-13T05:19:52.704Z,1.30
2023-04-13T05:22:19.720Z,1.30
2023-04-13T05:24:46.710Z,1.60
2023-04-13T05:27:15.683Z,1.30
2023-04-13T05:29:44.481Z,1.50
2023-04-13T05:32:12.633Z,1.60
2023-04-13T05:34:39.508Z,1.37
2023-04-13T05:37:08.480Z,1.03
2023-04-13T05:39:36.154Z,1.30
2023-04-13T05:42:03.311Z,1.10
2023-04-13T05:44:30.880Z,1.50
2023-04-13T05:46:58.076Z,1.23
2023-04-13T05:49:25.872Z,1.30
2023-04-13T05:51:54.628Z,1.40
2023-04-13T05:54:21.656Z,1.43
2023-04-13T05:56:48.674Z,1.10
2023-04-13T05:59:16.177Z,1.50
2023-04-13T06:01:43.046Z,1.20
2023-04-13T06:04:12.810Z,1.10
2023-04-13T06:06:40.792Z,1.27
2023-04-13T06:09:08.682Z,1.43
2023-04-13T06:11:35.793Z,1.50
2023-04-13T06:14:03.027Z,1.20
2023-04-13T06:16:29.976Z,1.20
2023-04-13T06:18:57.075Z,1.53
2023-04-13T06:21:24.132Z,1.17
2023-04-13T06:23:51.080Z,1.47
2023-04-13T06:26:18.062Z,1.10
2023-04-13T06:28:45.172Z,2.00
2023-04-13T06:31:13.768Z,1.60
2023-04-13T06:33:41.520Z,1.20
2023-04-13T06:36:09.231Z,1.60
2023-04-13T06:38:36.178Z,1.53
2023-04-13T06:41:04.436Z,2.23
2023-04-13T06:43:31.418Z,1.10
2023-04-13T06:46:01.689Z,1.77
2023-04-13T06:48:30.621Z,1.80
2023-04-13T06:50:59.190Z,1.30
2023-04-13T06:53:26.412Z,1.40
2023-04-13T06:55:53.596Z,1.20
2023-04-13T06:58:22.353Z,1.30
2023-04-13T07:00:49.265Z,1.60
2023-04-13T07:03:16.324Z,1.50
2023-04-13T07:05:44.938Z,1.93
2023-04-13T07:08:12.868Z,1.40
2023-04-13T07:10:40.889Z,1.20
2023-04-13T07:13:07.934Z,1.37
2023-04-13T07:15:37.865Z,1.70
2023-04-13T07:18:05.101Z,1.27
2023-04-13T07:20:32.257Z,1.60
2023-04-13T07:22:59.269Z,1.60
2023-04-13T07:25:26.186Z,1.63
2023-04-13T07:27:53.153Z,1.57
2023-04-13T07:30:20.793Z,1.17
2023-04-13T07:32:47.972Z,1.57
2023-04-13T07:35:15.548Z,1.30
2023-04-13T07:37:42.554Z,1.20
2023-04-13T07:40:11.510Z,1.40
2023-04-13T07:42:39.423Z,1.00
2023-04-13T07:45:08.043Z,1.33
2023-04-13T07:47:35.027Z,1.60
2023-04-13T07:50:02.243Z,1.40
2023-04-13T07:52:29.355Z,1.40
2023-04-13T07:54:56.263Z,1.40
2023-04-13T07:57:23.244Z,1.53
2023-04-13T07:59:50.319Z,1.20
2023-04-13T08:03:38.996Z,1.20
2023-04-13T08:06:10.346Z,1.63
2023-04-13T08:08:37.680Z,1.43
2023-04-13T08:11:05.052Z,1.50
2023-04-13T08:13:32.077Z,1.40
2023-04-13T08:16:00.251Z,1.17
2023-04-13T08:18:27.841Z,1.80
2023-04-13T08:20:55.359Z,1.47
2023-04-13T08:23:23.301Z,1.30
2023-04-13T08:25:50.458Z,1.20
2023-04-13T08:28:17.574Z,1.37
2023-04-13T08:30:45.709Z,1.20
2023-04-13T08:33:12.621Z,1.20
2023-04-13T08:35:39.698Z,1.20
2023-04-13T08:38:09.554Z,1.40
2023-04-13T08:40:40.698Z,1.70
2023-04-13T08:43:07.878Z,1.30
2023-04-13T08:45:36.010Z,1.13
2023-04-13T08:48:04.101Z,1.70
2023-04-13T08:50:31.191Z,1.30
2023-04-13T08:52:58.153Z,1.40
2023-04-13T08:55:26.352Z,1.20
2023-04-13T08:57:58.199Z,0.97
2023-04-13T09:00:25.693Z,1.60
2023-04-13T09:03:04.519Z,1.30
2023-04-13T09:05:36.832Z,1.40
2023-04-13T09:08:07.737Z,1.47
2023-04-13T09:10:35.066Z,1.77
2023-04-13T09:13:02.911Z,1.40
2023-04-13T09:15:32.182Z,1.50
2023-04-13T09:18:10.927Z,1.23
2023-04-13T09:20:38.281Z,1.40
2023-04-13T09:23:17.699Z,1.37
2023-04-13T09:25:46.813Z,1.37
2023-04-13T09:28:19.558Z,1.30
2023-04-13T09:30:47.124Z,1.50
2023-04-13T09:33:16.821Z,1.57
2023-04-13T09:35:43.826Z,1.40
2023-04-13T09:38:15.146Z,1.70
2023-04-13T09:40:50.384Z,1.77
2023-04-13T09:43:17.471Z,1.60
2023-04-13T09:45:44.563Z,1.50
2023-04-13T09:48:22.398Z,1.83
2023-04-13T09:51:06.581Z,1.70
2023-04-13T09:53:49.617Z,1.50
2023-04-13T09:56:17.096Z,1.47
2023-04-13T09:58:47.695Z,2.00
2023-04-13T10:01:17.808Z,2.60
2023-04-13T10:03:45.189Z,1.67
2023-04-13T10:06:12.885Z,1.50
2023-04-13T10:08:42.610Z,3.00
2023-04-13T10:11:14.979Z,1.63
2023-04-13T10:13:53.688Z,2.00
2023-04-13T10:17:16.568Z,2.10
2023-04-13T10:19:51.684Z,2.20
2023-04-13T10:22:22.771Z,1.87
2023-04-13T10:24:52.901Z,1.90
2023-04-13T10:27:23.425Z,2.10
2023-04-13T10:29:50.813Z,1.30
2023-04-13T10:32:26.671Z,1.60
2023-04-13T10:34:55.170Z,1.67
2023-04-13T10:37:27.237Z,1.90
2023-04-13T10:40:10.187Z,2.20
2023-04-13T10:42:53.164Z,1.80
2023-04-13T10:45:27.771Z,1.43
2023-04-13T10:47:58.221Z,1.40
2023-04-13T10:50:29.192Z,3.50
2023-04-13T10:53:05.118Z,1.70
2023-04-13T10:55:34.752Z,1.97
2023-04-13T10:58:14.552Z,1.80
2023-04-13T11:00:47.097Z,1.63
2023-04-13T11:03:16.927Z,1.73
2023-04-13T11:05:47.375Z,2.73
2023-04-13T11:08:21.436Z,1.87
2023-04-13T11:10:55.515Z,1.60
2023-04-13T11:13:29.334Z,1.60
2023-04-13T11:16:06.898Z,2.20
2023-04-13T11:18:33.897Z,1.60
2023-04-13T11:21:04.680Z,1.50
2023-04-13T11:23:35.875Z,1.40
2023-04-13T11:26:04.544Z,1.80
2023-04-13T11:28:45.988Z,1.70
2023-04-13T11:31:13.341Z,1.60
2023-04-13T11:33:40.986Z,1.87
2023-04-13T11:36:11.522Z,1.50
2023-04-13T11:38:41.929Z,1.73
2023-04-13T11:41:16.478Z,1.50
2023-04-13T11:43:48.709Z,1.50
2023-04-13T11:46:24.975Z,1.57
2023-04-13T11:48:53.083Z,1.40
2023-04-13T11:51:22.200Z,1.40
2023-04-13T11:53:51.274Z,1.37
2023-04-13T11:56:18.348Z,1.80
2023-04-13T11:58:45.484Z,1.63
2023-04-13T12:01:20.301Z,1.30
2023-04-13T12:04:01.430Z,1.33
2023-04-13T12:06:41.377Z,1.60
2023-04-13T12:09:13.562Z,1.73
2023-04-13T12:11:48.614Z,1.77
2023-04-13T12:14:49.770Z,1.97
2023-04-13T12:17:37.498Z,2.07
2023-04-13T12:20:04.954Z,2.43
2023-04-13T12:22:53.230Z,2.70
2023-04-13T12:25:25.142Z,2.70
2023-04-13T12:27:53.766Z,2.83
2023-04-13T12:30:22.971Z,2.80
2023-04-13T12:32:55.920Z,2.10
2023-04-13T12:35:23.152Z,1.40
2023-04-13T12:37:50.416Z,1.43
2023-04-13T12:40:18.276Z,2.50
2023-04-13T12:42:49.187Z,1.50
2023-04-13T12:45:16.771Z,1.70
2023-04-13T12:47:43.899Z,1.43
2023-04-13T12:50:12.261Z,1.93
2023-04-13T12:52:43.273Z,1.67
2023-04-13T12:55:11.179Z,3.20
2023-04-13T12:57:39.576Z,1.87
2023-04-13T13:00:10.904Z,2.33
2023-04-13T13:02:38.636Z,1.90
2023-04-13T13:05:06.847Z,1.60
2023-04-13T13:07:33.784Z,2.20
2023-04-13T13:10:01.776Z,1.63
2023-04-13T13:12:30.167Z,2.43
2023-04-13T13:15:00.206Z,2.10
2023-04-13T13:17:30.288Z,2.50
2023-04-13T13:19:57.537Z,1.77
2023-04-13T13:22:24.532Z,1.90
2023-04-13T13:24:51.597Z,2.10
2023-04-13T13:27:58.645Z,1.87
2023-04-13T13:30:08.874Z,1.90
2023-04-13T13:32:36.318Z,2.60
2023-04-13T13:35:04.005Z,2.43
2023-04-13T13:37:30.966Z,2.40
2023-04-13T13:39:58.010Z,1.80
2023-04-13T13:42:24.896Z,2.67
2023-04-13T13:44:51.917Z,1.70
2023-04-13T13:47:19.584Z,2.17
2023-04-13T13:49:46.685Z,1.87
2023-04-13T13:52:13.623Z,4.67
2023-04-13T13:54:40.587Z,3.83
2023-04-13T13:57:07.502Z,5.30
2023-04-13T13:59:34.458Z,4.00
2023-04-13T14:02:01.715Z,3.47
2023-04-13T14:04:28.687Z,3.10
2023-04-13T14:06:55.653Z,3.47
2023-04-13T14:09:22.646Z,2.60
2023-04-13T14:11:50.753Z,1.73
2023-04-13T14:14:21.653Z,2.27
2023-04-13T14:16:49.396Z,2.67
2023-04-13T14:19:18.018Z,2.23
2023-04-13T14:21:45.364Z,2.30
2023-04-13T14:24:12.348Z,1.73
2023-04-13T14:26:39.607Z,2.30
2023-04-13T14:29:07.475Z,2.70
2023-04-13T14:31:34.448Z,2.17
2023-04-13T14:34:01.459Z,1.90
2023-04-13T14:36:28.356Z,2.00
2023-04-13T14:38:55.336Z,2.47
2023-04-13T14:41:22.261Z,1.87
2023-04-13T14:43:49.236Z,2.00
2023-04-13T14:46:16.184Z,3.00
2023-04-13T14:48:43.176Z,2.77
2023-04-13T14:51:17.124Z,2.10
2023-04-13T14:53:44.352Z,2.40
2023-04-13T14:56:11.596Z,2.40
2023-04-13T14:58:38.681Z,2.60
2023-04-13T15:01:20.455Z,2.30
2023-04-13T15:03:48.025Z,2.00
2023-04-13T15:06:15.281Z,1.60
2023-04-13T15:08:42.231Z,1.90
2023-04-13T15:11:09.272Z,2.43
2023-04-13T15:13:38.111Z,3.10
2023-04-13T15:16:07.413Z,2.70
2023-04-13T15:18:34.495Z,1.80
2023-04-13T15:21:04.833Z,2.30
2023-04-13T15:23:33.422Z,1.50
2023-04-13T15:26:03.150Z,2.03
2023-04-13T15:28:30.647Z,4.47
2023-04-13T15:30:57.637Z,1.60
2023-04-13T15:33:24.666Z,1.60
2023-04-13T15:35:52.744Z,1.80
2023-04-13T15:38:19.862Z,1.60
2023-04-13T15:40:47.463Z,2.40
2023-04-13T15:43:15.452Z,2.23
2023-04-13T15:45:42.396Z,2.00
2023-04-13T15:48:10.146Z,2.20
2023-04-13T15:50:37.085Z,2.33
2023-04-13T15:53:06.138Z,1.77
2023-04-13T15:55:35.802Z,1.57
2023-04-13T15:58:03.700Z,1.50
2023-04-13T16:00:31.443Z,1.87
2023-04-13T16:02:58.477Z,1.40
2023-04-13T16:05:25.947Z,1.80
2023-04-13T16:07:53.002Z,1.70
2023-04-13T16:10:20.681Z,1.97
2023-04-13T16:12:49.772Z,1.73
2023-04-13T16:15:16.934Z,2.00
2023-04-13T16:17:44.695Z,1.93
2023-04-13T16:20:19.282Z,2.00
2023-04-13T16:22:48.882Z,1.97
2023-04-13T16:25:18.818Z,1.60
2023-04-13T16:27:48.215Z,1.80
2023-04-13T16:30:20.499Z,1.50
2023-04-13T16:32:50.077Z,1.67
2023-04-13T16:35:17.303Z,1.37
2023-04-13T16:37:45.001Z,1.53
2023-04-13T16:40:12.901Z,1.47
2023-04-13T16:42:41.351Z,2.00
2023-04-13T16:45:13.145Z,1.60
2023-04-13T16:47:42.075Z,2.87
2023-04-13T16:50:11.390Z,1.60
2023-04-13T16:52:41.518Z,1.57
2023-04-13T16:55:14.609Z,2.30
2023-04-13T16:57:43.171Z,2.50
2023-04-13T17:00:12.643Z,2.33
2023-04-13T17:02:42.005Z,1.97
2023-04-13T17:05:12.396Z,1.73
2023-04-13T17:07:43.558Z,1.60
2023-04-13T17:10:13.389Z,1.87
2023-04-13T17:12:41.033Z,2.23
2023-04-13T17:15:09.859Z,2.03
2023-04-13T17:17:38.252Z,1.70
2023-04-13T17:20:07.125Z,1.83
2023-04-13T17:22:34.020Z,2.70
2023-04-13T17:25:01.074Z,2.47
2023-04-13T17:27:28.206Z,2.47
2023-04-13T17:29:55.328Z,2.57
2023-04-13T17:32:22.476Z,2.80
2023-04-13T17:34:50.286Z,4.70
2023-04-13T17:37:18.008Z,2.40
2023-04-13T17:39:50.640Z,2.73
2023-04-13T17:42:18.476Z,1.90
2023-04-13T17:44:45.606Z,1.40
2023-04-13T17:47:12.917Z,1.60
2023-04-13T17:49:40.628Z,1.60
2023-04-13T17:52:07.605Z,1.60
2023-04-13T17:54:34.716Z,1.63
2023-04-13T17:57:01.837Z,2.10
2023-04-13T17:59:28.882Z,1.70
2023-04-13T18:01:57.484Z,1.83
2023-04-13T18:04:24.575Z,3.03
2023-04-13T18:06:51.812Z,3.70
2023-04-13T18:09:18.804Z,2.80
2023-04-13T18:11:45.939Z,4.33
2023-04-13T18:14:15.094Z,4.30
2023-04-13T18:16:42.563Z,4.10
2023-04-13T18:19:09.545Z,4.23
2023-04-13T18:21:37.039Z,4.43
2023-04-13T18:24:04.596Z,3.80
2023-04-13T18:26:31.549Z,3.97
2023-04-13T18:28:58.507Z,3.10
2023-04-13T18:31:25.532Z,2.70
2023-04-13T18:33:52.537Z,2.03
2023-04-13T18:36:19.566Z,2.10
2023-04-13T18:38:46.711Z,2.00
2023-04-13T18:41:13.745Z,2.10
2023-04-13T18:43:40.996Z,1.97
2023-04-13T18:46:08.233Z,1.73
2023-04-13T18:48:35.963Z,2.90
2023-04-13T18:51:03.242Z,2.47
2023-04-13T18:53:31.132Z,2.50
2023-04-13T18:55:58.987Z,2.30
2023-04-13T18:58:27.012Z,2.80
2023-04-13T19:00:55.086Z,3.83
2023-04-13T19:03:22.690Z,3.50
2023-04-13T19:05:49.834Z,2.53
2023-04-13T19:08:16.911Z,2.27
2023-04-13T19:10:44.898Z,2.90
2023-04-13T19:13:14.102Z,3.00
2023-04-13T19:15:41.232Z,2.50
2023-04-13T19:18:11.016Z,3.10
2023-04-13T19:20:38.059Z,4.90
2023-04-13T19:23:05.232Z,7.93
2023-04-13T19:25:32.201Z,7.30
2023-04-13T19:27:59.412Z,8.67
2023-04-13T19:30:26.604Z,7.10
2023-04-13T19:32:54.713Z,4.50
2023-04-13T19:35:24.258Z,5.37
2023-04-13T19:37:51.341Z,5.70
2023-04-13T19:40:19.354Z,6.27
2023-04-13T19:42:46.742Z,5.90
2023-04-13T19:45:15.437Z,6.20
2023-04-13T19:47:42.679Z,5.90
2023-04-13T19:50:14.189Z,5.90
2023-04-13T19:52:42.548Z,26.57
2023-04-13T19:55:10.731Z,19.77
2023-04-13T19:57:42.251Z,6.70
2023-04-13T20:00:20.410Z,11.13
2023-04-13T20:02:51.647Z,9.23
2023-04-13T20:05:20.212Z,2.60
2023-04-13T20:07:47.234Z,3.70
2023-04-13T20:10:14.396Z,14.87
2023-04-13T20:12:41.393Z,10.50
2023-04-13T20:15:08.912Z,15.47
2023-04-13T20:17:36.065Z,11.37
2023-04-13T20:20:03.726Z,8.77
2023-04-13T20:22:30.761Z,6.87
2023-04-13T20:24:57.931Z,4.90
2023-04-13T20:27:25.108Z,2.30
2023-04-13T20:29:52.252Z,2.00
2023-04-13T20:32:19.400Z,2.57
2023-04-13T20:34:46.804Z,2.30
2023-04-13T20:37:13.963Z,2.03
2023-04-13T20:39:50.502Z,2.20
2023-04-13T20:42:22.267Z,2.60
2023-04-13T20:44:57.269Z,2.20
2023-04-13T20:47:28.291Z,2.60
2023-04-13T20:49:57.457Z,2.27
2023-04-13T20:52:27.128Z,2.90
2023-04-13T20:54:54.645Z,2.53
2023-04-13T20:57:22.868Z,3.60
2023-04-13T20:59:51.941Z,2.67
2023-04-13T21:02:18.963Z,3.30
2023-04-13T21:04:46.806Z,4.37
2023-04-13T21:07:15.361Z,3.60
2023-04-13T21:09:42.573Z,3.53
2023-04-13T21:12:09.528Z,2.53
2023-04-13T21:14:36.528Z,4.50
2023-04-13T21:17:03.465Z,3.20
2023-04-13T21:19:31.857Z,3.47
2023-04-13T21:21:59.731Z,3.47
2023-04-13T21:24:26.759Z,3.93
2023-04-13T21:26:53.649Z,4.60
2023-04-13T21:29:20.718Z,3.80
2023-04-13T21:31:48.155Z,3.27
2023-04-13T21:34:16.942Z,3.93
2023-04-13T21:39:16.345Z,2.90
2023-04-13T21:41:43.389Z,2.40
2023-04-13T21:44:26.221Z,2.13
2023-04-13T21:46:55.839Z,2.97
2023-04-13T21:49:22.774Z,2.30
2023-04-13T21:51:49.764Z,2.80
2023-04-13T21:54:16.689Z,3.70
2023-04-13T21:56:43.603Z,5.97
2023-04-13T21:59:10.582Z,3.40
2023-04-13T22:01:37.504Z,3.07
2023-04-13T22:04:04.547Z,2.80
2023-04-13T22:06:33.585Z,3.43
2023-04-13T22:09:00.903Z,2.20
2023-04-13T22:11:28.177Z,2.90
2023-04-13T22:13:55.141Z,3.00
2023-04-13T22:16:22.207Z,2.47
2023-04-13T22:18:49.369Z,2.60
2023-04-13T22:21:16.252Z,3.20
2023-04-13T22:23:43.229Z,2.50
2023-04-13T22:26:10.177Z,3.30
2023-04-13T22:28:37.190Z,1.80
2023-04-13T22:31:09.638Z,2.60
2023-04-13T22:33:37.454Z,2.60
2023-04-13T22:36:06.716Z,3.13
2023-04-13T22:38:33.704Z,2.90
2023-04-13T22:41:06.883Z,2.40
2023-04-13T22:43:34.037Z,2.37
2023-04-13T22:46:01.361Z,2.80
2023-04-13T22:48:29.529Z,3.10
2023-04-13T22:50:58.406Z,2.97
2023-04-13T22:53:26.024Z,4.00
2023-04-13T22:55:54.073Z,3.53
2023-04-13T22:58:21.170Z,3.60
2023-04-13T23:00:48.191Z,4.00
2023-04-13T23:03:15.536Z,4.00
2023-04-13T23:05:42.642Z,3.73
2023-04-13T23:08:09.603Z,3.80
2023-04-13T23:10:36.565Z,3.70
2023-04-13T23:13:04.521Z,3.40
2023-04-13T23:15:31.630Z,3.23
2023-04-13T23:17:58.630Z,3.63
2023-04-13T23:20:28.220Z,3.20
2023-04-13T23:22:55.207Z,3.27
2023-04-13T23:25:22.232Z,3.60
2023-04-13T23:27:49.228Z,2.90
2023-04-13T23:30:16.285Z,3.70
2023-04-13T23:32:44.303Z,3.13
2023-04-13T23:35:11.274Z,4.33
2023-04-13T23:37:40.547Z,4.50
2023-04-13T23:40:09.009Z,3.83
2023-04-13T23:42:36.314Z,5.70
2023-04-13T23:45:04.071Z,4.33
2023-04-13T23:47:31.280Z,4.90
2023-04-13T23:49:58.291Z,5.73
2023-04-13T23:52:25.286Z,5.43
2023-04-13T23:54:52.221Z,5.70
2023-04-13T23:57:19.206Z,4.30
2023-04-13T23:59:46.251Z,5.83
